Time;durP1;ratioP1;P1;durP2;ratioP2;P2;SDS_P1;SDS_P2;PMS_P1;PMS_P2;Temp;Humidity;BMP_temperature;BMP_pressure;BME280_temperature;BME280_humidity;BME280_pressure;Samples;Min_cycle;Max_cycle;Signal;HPM_P1;HPM_P2
2024/03/21 00:02:10;;;;;;;8.77;5.43;;;8.90;65.40;;;;;;5042471;28;20037;-49
2024/03/21 00:04:35;;;;;;;10.23;5.53;;;8.90;65.70;;;;;;5040025;28;20059;-45
2024/03/21 00:07:02;;;;;;;9.23;5.65;;;8.80;65.40;;;;;;5045176;28;20025;-47
2024/03/21 00:09:28;;;;;;;8.07;4.80;;;8.80;65.90;;;;;;5041390;28;20060;-48
2024/03/21 00:11:54;;;;;;;9.88;4.95;;;8.80;66.10;;;;;;5035880;28;20100;-46
2024/03/21 00:14:20;;;;;;;12.55;5.85;;;8.80;65.90;;;;;;5041404;28;20025;-46
2024/03/21 00:16:46;;;;;;;12.57;5.80;;;8.80;65.90;;;;;;5041008;28;20033;-45
2024/03/21 00:19:11;;;;;;;10.45;6.13;;;8.80;65.70;;;;;;5045131;28;20028;-48
2024/03/21 00:21:37;;;;;;;9.13;5.43;;;8.80;66.20;;;;;;5044941;28;20028;-47
2024/03/21 00:24:03;;;;;;;9.75;5.60;;;8.80;66.00;;;;;;5039304;28;20043;-45
2024/03/21 00:26:28;;;;;;;13.63;6.20;;;8.80;66.10;;;;;;5044387;28;20060;-46
2024/03/21 00:28:54;;;;;;;10.80;5.20;;;8.80;66.30;;;;;;5043759;28;20037;-47
2024/03/21 00:31:19;;;;;;;10.13;5.50;;;8.70;67.30;;;;;;5043747;28;20619;-46
2024/03/21 00:33:47;;;;;;;8.35;5.30;;;8.80;67.60;;;;;;5044033;28;20028;-44
2024/03/21 00:36:14;;;;;;;9.63;5.85;;;8.70;67.40;;;;;;5038638;28;20059;-47
2024/03/21 00:38:39;;;;;;;10.52;5.40;;;8.70;67.60;;;;;;5039715;28;20497;-46
2024/03/21 00:41:05;;;;;;;6.88;4.40;;;8.70;67.70;;;;;;5037901;28;20031;-46
2024/03/21 00:43:30;;;;;;;11.45;5.68;;;8.70;68.00;;;;;;5038968;28;20052;-47
2024/03/21 00:45:56;;;;;;;10.68;5.47;;;8.70;68.20;;;;;;5043760;28;20033;-51
2024/03/21 00:48:22;;;;;;;8.88;5.07;;;8.70;68.50;;;;;;5048439;28;20526;-45
2024/03/21 00:50:48;;;;;;;9.75;4.78;;;8.70;68.60;;;;;;5046182;28;20127;-46
2024/03/21 00:53:13;;;;;;;11.70;5.80;;;8.70;68.80;;;;;;5038894;28;20021;-46
2024/03/21 00:55:39;;;;;;;8.07;5.00;;;8.70;69.00;;;;;;5044263;28;20448;-46
2024/03/21 00:58:04;;;;;;;8.98;5.68;;;8.70;69.10;;;;;;5045256;28;20087;-47
2024/03/21 01:00:30;;;;;;;10.45;6.15;;;8.70;68.70;;;;;;5036594;28;20707;-47
2024/03/21 01:02:56;;;;;;;9.52;5.47;;;8.70;69.30;;;;;;5041534;28;20103;-46
2024/03/21 01:05:21;;;;;;;10.88;5.82;;;8.70;69.10;;;;;;5041206;28;20651;-49
2024/03/21 01:07:47;;;;;;;13.60;6.13;;;8.70;69.00;;;;;;5040301;28;20024;-45
2024/03/21 01:10:13;;;;;;;9.95;4.88;;;8.70;69.10;;;;;;5044002;28;20627;-46
2024/03/21 01:12:39;;;;;;;8.30;4.65;;;8.70;69.10;;;;;;5048198;28;20075;-47
2024/03/21 01:15:05;;;;;;;9.77;5.18;;;8.70;69.60;;;;;;5041591;28;20028;-46
2024/03/21 01:17:31;;;;;;;8.98;4.68;;;8.70;69.40;;;;;;5051156;28;20055;-47
2024/03/21 01:19:56;;;;;;;8.43;5.28;;;8.70;69.50;;;;;;5044569;28;20087;-45
2024/03/21 01:22:22;;;;;;;9.70;5.70;;;8.70;69.40;;;;;;5054419;28;20090;-45
2024/03/21 01:24:48;;;;;;;8.35;5.40;;;8.70;69.50;;;;;;5047111;28;20531;-47
2024/03/21 01:27:14;;;;;;;10.30;5.13;;;8.80;70.00;;;;;;5054346;28;20020;-48
2024/03/21 01:29:40;;;;;;;8.48;5.40;;;8.80;70.40;;;;;;5050069;28;20055;-49
2024/03/21 01:32:06;;;;;;;8.88;5.50;;;8.80;70.40;;;;;;5051948;28;20060;-45
2024/03/21 01:34:31;;;;;;;8.68;4.80;;;8.80;70.40;;;;;;5052022;28;20021;-47
2024/03/21 01:36:57;;;;;;;9.50;5.70;;;8.80;70.30;;;;;;5049829;28;20032;-46
2024/03/21 01:39:23;;;;;;;9.98;5.18;;;8.80;70.50;;;;;;5041909;28;20032;-50
2024/03/21 01:41:50;;;;;;;10.77;5.50;;;8.80;70.50;;;;;;5045246;28;20029;-46
2024/03/21 01:44:17;;;;;;;9.98;5.50;;;8.80;70.70;;;;;;5052831;28;20031;-46
2024/03/21 01:46:43;;;;;;;10.02;5.35;;;8.70;70.50;;;;;;5047058;28;20104;-47
2024/03/21 01:49:09;;;;;;;12.13;6.15;;;8.70;70.30;;;;;;5047416;28;20105;-45
2024/03/21 01:51:36;;;;;;;10.30;6.03;;;8.70;70.70;;;;;;5044340;28;20058;-48
2024/03/21 01:54:05;;;;;;;10.00;5.57;;;8.70;70.50;;;;;;5046014;28;20429;-47
2024/03/21 01:56:31;;;;;;;8.38;5.60;;;8.70;70.40;;;;;;5045899;28;20025;-46
2024/03/21 01:58:57;;;;;;;9.82;5.78;;;8.70;70.30;;;;;;5059741;28;20077;-48
2024/03/21 02:01:29;;;;;;;8.05;5.28;;;8.70;70.80;;;;;;5046966;28;20111;-47
2024/03/21 02:03:56;;;;;;;9.93;5.72;;;8.70;70.90;;;;;;5047628;28;20048;-49
2024/03/21 02:06:28;;;;;;;8.35;5.43;;;8.70;71.40;;;;;;5045789;28;20120;-46
2024/03/21 02:08:54;;;;;;;10.70;5.53;;;8.70;71.40;;;;;;5048155;28;20051;-50
2024/03/21 02:11:21;;;;;;;12.52;5.85;;;8.70;71.90;;;;;;5043856;28;20037;-46
2024/03/21 02:13:47;;;;;;;8.57;5.70;;;8.70;71.60;;;;;;5044023;28;20017;-45
2024/03/21 02:16:13;;;;;;;9.55;5.93;;;8.70;71.90;;;;;;5039759;28;20120;-46
2024/03/21 02:18:39;;;;;;;13.85;6.22;;;8.70;72.10;;;;;;5041544;28;20119;-47
2024/03/21 02:21:06;;;;;;;8.02;5.35;;;8.70;72.20;;;;;;5043524;28;20596;-46
2024/03/21 02:23:32;;;;;;;12.50;6.15;;;8.70;72.40;;;;;;5043915;28;20068;-45
2024/03/21 02:25:58;;;;;;;7.70;4.82;;;8.80;72.60;;;;;;5041503;28;20052;-45
2024/03/21 02:28:27;;;;;;;8.80;5.18;;;8.80;72.20;;;;;;5049753;28;20507;-45
2024/03/21 02:30:55;;;;;;;9.07;5.50;;;8.80;72.60;;;;;;5051739;28;20028;-45
2024/03/21 02:33:20;;;;;;;10.10;5.85;;;8.80;72.90;;;;;;5039539;28;20159;-46
2024/03/21 02:35:46;;;;;;;10.18;6.00;;;8.80;73.10;;;;;;5043364;28;20111;-46
2024/03/21 02:38:11;;;;;;;11.85;6.78;;;8.80;73.50;;;;;;5049368;28;20033;-45
2024/03/21 02:40:37;;;;;;;9.35;5.72;;;8.90;74.30;;;;;;5045331;28;20404;-48
2024/03/21 02:43:02;;;;;;;11.00;6.25;;;8.80;73.80;;;;;;5045072;28;20368;-49
2024/03/21 02:45:28;;;;;;;12.55;6.18;;;8.80;73.30;;;;;;5047558;28;20039;-45
2024/03/21 02:47:53;;;;;;;9.07;5.63;;;8.80;74.50;;;;;;5048031;28;20044;-47
2024/03/21 02:50:19;;;;;;;11.82;6.35;;;8.90;74.80;;;;;;5052874;28;20424;-47
2024/03/21 02:52:44;;;;;;;11.18;6.82;;;8.80;74.60;;;;;;5047960;28;20060;-46
2024/03/21 02:55:10;;;;;;;14.25;6.05;;;8.90;75.10;;;;;;5045529;28;20044;-45
2024/03/21 02:57:36;;;;;;;10.48;6.05;;;8.90;75.80;;;;;;5042346;28;20071;-47
2024/03/21 03:00:01;;;;;;;10.57;6.25;;;8.90;75.90;;;;;;5041595;28;20056;-47
2024/03/21 03:02:27;;;;;;;11.38;5.97;;;8.90;75.60;;;;;;5039268;28;20044;-46
2024/03/21 03:04:53;;;;;;;11.98;6.05;;;8.90;75.60;;;;;;5048449;28;20531;-50
2024/03/21 03:07:18;;;;;;;8.35;5.65;;;8.90;75.80;;;;;;5043139;28;20037;-46
2024/03/21 03:09:44;;;;;;;11.18;5.93;;;8.90;75.60;;;;;;5042789;28;20492;-46
2024/03/21 03:12:09;;;;;;;9.85;6.38;;;8.90;75.50;;;;;;5043007;28;20063;-45
2024/03/21 03:14:35;;;;;;;10.43;5.40;;;8.90;75.70;;;;;;5038956;28;20039;-46
2024/03/21 03:17:00;;;;;;;11.50;5.82;;;8.90;76.60;;;;;;5042870;28;20017;-45
2024/03/21 03:19:26;;;;;;;10.02;6.40;;;9.00;76.90;;;;;;5044785;28;20040;-46
2024/03/21 03:21:51;;;;;;;8.70;5.80;;;8.90;76.80;;;;;;5038853;28;20139;-46
2024/03/21 03:24:17;;;;;;;9.85;6.25;;;8.90;77.00;;;;;;5046755;28;20039;-46
2024/03/21 03:26:42;;;;;;;10.15;6.07;;;8.90;78.10;;;;;;5054498;28;20036;-47
2024/03/21 03:29:08;;;;;;;8.30;5.50;;;8.90;78.30;;;;;;5057185;28;20036;-49
2024/03/21 03:31:33;;;;;;;9.88;5.88;;;8.90;78.90;;;;;;5052736;28;20025;-46
2024/03/21 03:36:44;;;;;;;11.40;6.30;;;8.80;79.00;;;;;;5039952;28;20112;-46
2024/03/21 03:39:09;;;;;;;10.13;6.03;;;8.80;79.60;;;;;;5036346;28;20060;-45
2024/03/21 03:41:35;;;;;;;11.38;7.05;;;8.80;81.10;;;;;;5050971;28;20052;-49
2024/03/21 03:44:00;;;;;;;11.35;6.70;;;8.70;80.70;;;;;;5048059;28;20029;-46
2024/03/21 03:46:26;;;;;;;14.25;7.63;;;8.70;82.40;;;;;;5042519;28;20021;-44
2024/03/21 03:48:51;;;;;;;15.88;8.38;;;8.70;82.30;;;;;;5048484;28;20028;-46
2024/03/21 03:51:17;;;;;;;12.50;7.00;;;8.70;82.70;;;;;;5044145;28;20104;-46
2024/03/21 03:53:43;;;;;;;14.20;7.63;;;8.70;83.80;;;;;;5046103;28;20028;-48
2024/03/21 03:56:08;;;;;;;12.15;7.40;;;8.70;85.40;;;;;;5052105;28;20021;-46
2024/03/21 03:58:34;;;;;;;11.52;7.40;;;8.60;85.70;;;;;;5046287;28;20392;-45
2024/03/21 04:01:01;;;;;;;11.60;6.90;;;8.60;86.40;;;;;;5042060;28;20049;-46
2024/03/21 04:03:27;;;;;;;13.30;7.65;;;8.60;87.80;;;;;;5044409;28;20032;-46
2024/03/21 04:06:00;;;;;;;16.02;8.63;;;8.60;88.20;;;;;;5046443;28;20112;-47
2024/03/21 04:08:26;;;;;;;11.07;6.20;;;8.50;88.30;;;;;;5045592;28;20104;-49
2024/03/21 04:10:54;;;;;;;17.75;8.77;;;8.50;90.00;;;;;;5042719;28;20500;-45
2024/03/21 04:13:19;;;;;;;15.93;8.60;;;8.50;90.20;;;;;;5045952;28;20116;-47
2024/03/21 04:15:56;;;;;;;13.65;7.38;;;8.50;90.70;;;;;;5045774;28;20112;-46
2024/03/21 04:18:22;;;;;;;12.35;7.90;;;8.50;90.70;;;;;;5042124;28;20029;-48
2024/03/21 04:20:53;;;;;;;14.00;7.80;;;8.50;90.80;;;;;;5044431;28;20037;-49
2024/03/21 04:23:19;;;;;;;12.25;7.35;;;8.50;91.30;;;;;;5041226;28;20025;-47
2024/03/21 04:25:44;;;;;;;14.57;9.00;;;8.50;92.20;;;;;;5062038;28;20017;-45
2024/03/21 04:28:10;;;;;;;15.48;8.25;;;8.40;92.10;;;;;;5049766;28;20027;-46
2024/03/21 04:30:36;;;;;;;14.18;8.20;;;8.40;92.50;;;;;;5041767;28;20028;-47
2024/03/21 04:33:02;;;;;;;17.83;8.18;;;8.40;93.60;;;;;;5039688;28;20052;-46
2024/03/21 04:35:27;;;;;;;16.83;7.88;;;8.50;94.10;;;;;;5039880;28;20063;-47
2024/03/21 04:37:53;;;;;;;17.75;7.72;;;8.50;94.30;;;;;;5051077;28;20459;-45
2024/03/21 04:40:18;;;;;;;12.23;7.13;;;8.50;94.60;;;;;;5044575;28;20041;-45
2024/03/21 04:42:44;;;;;;;13.82;8.50;;;8.50;95.00;;;;;;5049922;28;20435;-48
2024/03/21 04:45:09;;;;;;;13.88;8.13;;;8.50;95.20;;;;;;5043764;28;20116;-49
2024/03/21 04:47:35;;;;;;;17.35;8.57;;;8.50;95.90;;;;;;5059491;28;20025;-46
2024/03/21 04:50:00;;;;;;;17.40;8.68;;;8.50;95.40;;;;;;5049309;28;20061;-45
2024/03/21 04:52:27;;;;;;;16.20;8.93;;;8.50;95.20;;;;;;5045440;28;20067;-48
2024/03/21 04:54:53;;;;;;;15.98;9.50;;;8.50;95.70;;;;;;5041004;28;20071;-46
2024/03/21 04:57:18;;;;;;;15.80;9.25;;;8.50;95.50;;;;;;5048230;28;20032;-47
2024/03/21 04:59:44;;;;;;;16.20;9.55;;;8.50;96.00;;;;;;5046343;28;20056;-47
2024/03/21 05:02:09;;;;;;;19.77;8.95;;;8.40;96.80;;;;;;5046856;28;20436;-46
2024/03/21 05:04:35;;;;;;;16.70;9.55;;;8.40;97.20;;;;;;5051586;28;20036;-47
2024/03/21 05:07:01;;;;;;;16.75;9.63;;;8.40;97.00;;;;;;5055085;28;20056;-47
2024/03/21 05:09:26;;;;;;;19.73;8.95;;;8.40;98.20;;;;;;5044028;28;20073;-46
2024/03/21 05:11:52;;;;;;;16.45;9.02;;;8.50;99.20;;;;;;5040102;28;20047;-47
2024/03/21 05:14:17;;;;;;;14.57;8.82;;;8.50;98.70;;;;;;5046606;28;20032;-47
2024/03/21 05:16:44;;;;;;;19.02;9.52;;;8.50;98.80;;;;;;5042967;28;20031;-48
2024/03/21 05:19:11;;;;;;;18.13;9.18;;;8.50;98.80;;;;;;5041684;28;20584;-52
2024/03/21 05:21:36;;;;;;;19.50;9.82;;;8.50;99.40;;;;;;5049153;28;20074;-48
2024/03/21 05:24:02;;;;;;;16.75;8.25;;;8.50;99.80;;;;;;5046567;28;20025;-48
2024/03/21 05:26:27;;;;;;;19.00;9.52;;;8.50;99.90;;;;;;5051220;28;20362;-47
2024/03/21 05:28:53;;;;;;;17.10;9.40;;;8.60;99.80;;;;;;5056830;28;20036;-49
2024/03/21 05:31:23;;;;;;;17.10;10.00;;;8.60;99.40;;;;;;5050548;28;20435;-48
2024/03/21 05:33:49;;;;;;;15.35;9.43;;;8.60;99.60;;;;;;5058183;28;20032;-46
2024/03/21 05:36:16;;;;;;;20.15;10.57;;;8.60;99.90;;;;;;5050046;28;20028;-47
2024/03/21 05:38:45;;;;;;;16.42;9.60;;;8.60;99.90;;;;;;5038473;28;20021;-46
2024/03/21 05:41:11;;;;;;;23.00;10.52;;;8.60;99.90;;;;;;5045541;28;20071;-48
2024/03/21 05:43:37;;;;;;;15.30;9.00;;;8.60;99.90;;;;;;5048123;28;20065;-48
2024/03/21 05:46:03;;;;;;;21.30;10.63;;;8.70;99.90;;;;;;5044999;28;20458;-45
2024/03/21 05:48:28;;;;;;;19.25;10.68;;;8.70;99.90;;;;;;5048078;28;20024;-47
2024/03/21 05:50:54;;;;;;;22.10;11.27;;;8.70;99.90;;;;;;5047537;28;20017;-48
2024/03/21 05:53:19;;;;;;;21.45;12.30;;;8.80;99.90;;;;;;5041316;28;20025;-45
2024/03/21 05:56:04;;;;;;;21.55;11.50;;;8.80;99.90;;;;;;5042130;28;20029;-49
2024/03/21 05:58:31;;;;;;;22.60;11.77;;;8.80;99.90;;;;;;5043446;28;20041;-48
2024/03/21 06:03:33;;;;;;;18.63;10.10;;;8.80;99.90;;;;;;5049045;28;20081;-47
2024/03/21 06:05:59;;;;;;;18.48;10.68;;;8.80;99.90;;;;;;5042924;28;20045;-50
2024/03/21 06:08:25;;;;;;;25.35;12.02;;;8.80;99.90;;;;;;5043946;28;20036;-46
2024/03/21 06:10:51;;;;;;;20.45;10.88;;;8.80;99.90;;;;;;5041483;28;20041;-48
2024/03/21 06:13:16;;;;;;;22.90;11.35;;;8.90;99.90;;;;;;5043890;28;20043;-47
2024/03/21 06:15:42;;;;;;;19.58;10.43;;;8.90;99.90;;;;;;5049351;28;20025;-47
2024/03/21 06:18:07;;;;;;;15.48;9.00;;;8.90;99.90;;;;;;5039542;28;20043;-48
2024/03/21 06:20:33;;;;;;;20.55;10.25;;;9.00;99.90;;;;;;5043581;28;20082;-48
2024/03/21 06:22:59;;;;;;;20.10;10.25;;;9.00;99.90;;;;;;5045509;28;20028;-48
2024/03/21 06:25:24;;;;;;;18.98;10.25;;;9.00;99.90;;;;;;5046782;28;20532;-47
2024/03/21 06:27:50;;;;;;;16.15;10.25;;;9.10;99.90;;;;;;5046969;28;20028;-47
2024/03/21 06:30:16;;;;;;;21.20;11.13;;;9.10;99.90;;;;;;5064279;28;20138;-47
2024/03/21 06:32:42;;;;;;;20.33;11.13;;;9.20;99.90;;;;;;5043674;28;20024;-50
2024/03/21 06:35:10;;;;;;;20.75;11.88;;;9.20;99.90;;;;;;5040960;28;20028;-46
2024/03/21 06:37:35;;;;;;;17.20;10.52;;;9.30;99.90;;;;;;5047572;28;20056;-48
2024/03/21 06:40:04;;;;;;;22.08;12.38;;;9.30;99.90;;;;;;5044191;28;20071;-48
2024/03/21 06:42:31;;;;;;;20.63;11.57;;;9.40;99.90;;;;;;5044722;28;20020;-45
2024/03/21 06:45:00;;;;;;;19.88;11.82;;;9.40;99.90;;;;;;5038115;28;20472;-48
2024/03/21 06:47:26;;;;;;;22.15;13.05;;;9.40;99.90;;;;;;5041716;28;20029;-50
2024/03/21 06:49:56;;;;;;;23.77;13.32;;;9.40;99.90;;;;;;5042782;28;20400;-48
2024/03/21 06:52:22;;;;;;;20.40;12.48;;;9.40;99.90;;;;;;5044039;28;20095;-50
2024/03/21 06:54:48;;;;;;;19.45;10.25;;;9.40;99.90;;;;;;5043165;28;20033;-50
2024/03/21 06:57:13;;;;;;;20.33;11.57;;;9.30;99.90;;;;;;5040364;28;20116;-50
2024/03/21 06:59:39;;;;;;;22.10;11.52;;;9.40;99.90;;;;;;5044183;28;20025;-51
2024/03/21 07:02:06;;;;;;;22.23;12.52;;;9.50;99.90;;;;;;5053836;28;20036;-45
2024/03/21 07:04:31;;;;;;;20.52;11.48;;;9.50;99.90;;;;;;5053717;28;20110;-50
2024/03/21 07:06:57;;;;;;;22.00;11.70;;;9.60;99.90;;;;;;5051815;28;20422;-48
2024/03/21 07:09:23;;;;;;;22.17;11.82;;;9.70;99.90;;;;;;5045676;28;20041;-51
2024/03/21 07:11:48;;;;;;;16.50;9.95;;;9.80;99.90;;;;;;5049155;28;20040;-46
2024/03/21 07:14:14;;;;;;;19.77;10.75;;;9.80;99.90;;;;;;5047446;28;20021;-47
2024/03/21 07:16:40;;;;;;;19.02;10.75;;;9.80;99.90;;;;;;5044249;28;20051;-49
2024/03/21 07:19:05;;;;;;;16.25;9.32;;;9.90;99.90;;;;;;5048405;28;20411;-50
2024/03/21 07:21:31;;;;;;;14.40;8.82;;;9.90;99.90;;;;;;5052128;28;20048;-48
2024/03/21 07:23:56;;;;;;;20.15;10.63;;;9.90;99.90;;;;;;5047672;28;20040;-46
2024/03/21 07:26:22;;;;;;;20.27;10.45;;;9.90;99.90;;;;;;5051256;28;20021;-47
2024/03/21 07:28:47;;;;;;;21.73;12.00;;;9.90;99.90;;;;;;5042990;28;20060;-48
2024/03/21 07:31:13;;;;;;;24.52;12.57;;;9.90;99.90;;;;;;5047173;28;20115;-50
2024/03/21 07:33:38;;;;;;;20.67;11.57;;;9.90;99.90;;;;;;5053141;28;20021;-46
2024/03/21 07:36:04;;;;;;;23.23;12.68;;;9.80;99.90;;;;;;5043073;28;20519;-49
2024/03/21 07:38:30;;;;;;;20.13;11.00;;;9.80;99.90;;;;;;5052696;28;20175;-48
2024/03/21 07:40:56;;;;;;;18.52;10.52;;;9.80;99.90;;;;;;5044537;28;20492;-47
2024/03/21 07:43:22;;;;;;;18.92;10.60;;;9.80;99.90;;;;;;5047591;28;20032;-48
2024/03/21 07:45:48;;;;;;;17.05;10.45;;;9.80;99.90;;;;;;5051041;28;20021;-46
2024/03/21 07:48:14;;;;;;;22.95;11.43;;;9.80;99.90;;;;;;5051228;28;20086;-46
2024/03/21 07:50:39;;;;;;;18.38;11.13;;;9.80;99.90;;;;;;5044403;28;20456;-47
2024/03/21 07:53:06;;;;;;;20.00;10.55;;;9.90;99.90;;;;;;5062158;28;20025;-48
2024/03/21 07:55:32;;;;;;;24.38;13.07;;;9.90;99.90;;;;;;5048347;28;20017;-52
2024/03/21 07:57:58;;;;;;;21.73;11.60;;;9.90;99.90;;;;;;5061831;28;20036;-47
2024/03/21 08:00:23;;;;;;;19.05;10.68;;;9.90;99.90;;;;;;5043599;28;20071;-47
2024/03/21 08:02:50;;;;;;;24.10;12.18;;;9.90;99.90;;;;;;5045346;28;20397;-47
2024/03/21 08:05:15;;;;;;;23.13;11.93;;;9.90;99.90;;;;;;5042544;28;20021;-51
2024/03/21 08:07:41;;;;;;;17.88;10.98;;;9.90;99.90;;;;;;5044255;28;20217;-49
2024/03/21 08:10:07;;;;;;;17.20;9.88;;;10.00;99.90;;;;;;5041826;28;20104;-48
2024/03/21 08:12:33;;;;;;;23.73;11.77;;;10.00;99.90;;;;;;5046706;28;20553;-49
2024/03/21 08:14:58;;;;;;;23.40;12.05;;;10.10;99.90;;;;;;5044463;28;20116;-49
2024/03/21 08:17:23;;;;;;;24.13;11.80;;;10.20;99.90;;;;;;5046388;28;20040;-48
2024/03/21 08:19:51;;;;;;;21.40;10.13;;;10.30;99.90;;;;;;5048281;28;20040;-47
2024/03/21 08:22:16;;;;;;;18.83;11.32;;;10.40;99.90;;;;;;5044517;28;20028;-49
2024/03/21 08:24:42;;;;;;;25.17;12.20;;;10.40;99.90;;;;;;5046281;28;20025;-49
2024/03/21 08:27:07;;;;;;;22.33;12.40;;;10.50;99.90;;;;;;5046059;28;20033;-51
2024/03/21 08:29:33;;;;;;;21.27;11.65;;;10.60;99.90;;;;;;5042876;28;20274;-48
2024/03/21 08:31:58;;;;;;;19.42;11.75;;;10.60;99.90;;;;;;5049221;28;20028;-48
2024/03/21 08:34:24;;;;;;;19.38;11.18;;;10.70;99.90;;;;;;5043870;28;20064;-46
2024/03/21 08:36:50;;;;;;;21.98;11.32;;;10.90;99.90;;;;;;5054219;28;20505;-47
2024/03/21 08:39:15;;;;;;;18.40;11.77;;;11.00;99.90;;;;;;5049593;28;20037;-49
2024/03/21 08:41:41;;;;;;;21.85;13.75;;;11.10;99.90;;;;;;5048682;28;20051;-50
2024/03/21 08:44:06;;;;;;;24.75;13.50;;;11.20;99.90;;;;;;5047479;28;20501;-48
2024/03/21 08:46:32;;;;;;;25.60;13.50;;;11.20;99.90;;;;;;5061214;28;20067;-48
2024/03/21 08:48:57;;;;;;;21.23;13.43;;;11.20;99.90;;;;;;5046504;28;20040;-44
2024/03/21 08:51:23;;;;;;;27.15;13.93;;;11.30;99.90;;;;;;5044472;28;20043;-44
2024/03/21 08:53:48;;;;;;;27.38;14.23;;;11.30;99.90;;;;;;5046464;28;20024;-44
2024/03/21 08:56:14;;;;;;;25.20;13.45;;;11.20;99.90;;;;;;5043456;28;20029;-44
2024/03/21 08:58:39;;;;;;;22.90;13.27;;;11.20;99.90;;;;;;5044603;28;20040;-48
2024/03/21 09:01:05;;;;;;;23.05;13.27;;;11.20;99.90;;;;;;5051465;28;20428;-44
2024/03/21 09:03:33;;;;;;;21.42;13.30;;;11.30;99.90;;;;;;5046108;28;20067;-45
2024/03/21 09:05:59;;;;;;;30.65;14.65;;;11.30;99.90;;;;;;5051911;28;20485;-47
2024/03/21 09:08:24;;;;;;;19.80;11.93;;;11.40;99.90;;;;;;5047777;28;20489;-48
2024/03/21 09:10:50;;;;;;;24.73;15.27;;;11.40;99.90;;;;;;5040954;28;20044;-49
2024/03/21 09:13:15;;;;;;;24.23;14.38;;;11.40;99.90;;;;;;5053930;28;20029;-46
2024/03/21 09:15:41;;;;;;;25.33;13.25;;;11.40;99.90;;;;;;5060057;28;20021;-47
2024/03/21 09:18:06;;;;;;;20.65;12.25;;;11.40;99.90;;;;;;5048581;28;20092;-47
2024/03/21 09:20:33;;;;;;;21.42;13.52;;;11.40;99.90;;;;;;5050832;28;20044;-44
2024/03/21 09:22:59;;;;;;;23.77;13.13;;;11.40;99.90;;;;;;5047508;28;20116;-46
2024/03/21 09:25:24;;;;;;;25.27;13.82;;;11.40;99.90;;;;;;5047199;28;20125;-46
2024/03/21 09:27:50;;;;;;;23.65;13.30;;;11.40;99.90;;;;;;5043052;28;20025;-44
2024/03/21 09:30:16;;;;;;;25.50;14.10;;;11.30;99.90;;;;;;5041430;28;20040;-45
2024/03/21 09:32:41;;;;;;;26.65;13.13;;;11.30;99.90;;;;;;5044432;28;20632;-46
2024/03/21 09:35:09;;;;;;;25.95;13.73;;;11.30;99.90;;;;;;5046469;28;20021;-43
2024/03/21 09:37:35;;;;;;;27.88;14.55;;;11.20;99.90;;;;;;5052411;28;20593;-46
2024/03/21 09:40:00;;;;;;;27.48;16.17;;;11.20;99.90;;;;;;5041756;28;20044;-46
2024/03/21 09:42:26;;;;;;;25.77;14.98;;;11.20;99.90;;;;;;5040615;28;20083;-49
2024/03/21 09:44:53;;;;;;;26.13;15.57;;;11.10;99.90;;;;;;5043864;28;20083;-46
2024/03/21 09:47:20;;;;;;;32.97;18.58;;;11.10;99.90;;;;;;5044531;28;20021;-44
2024/03/21 09:49:52;;;;;;;29.92;17.60;;;11.10;99.90;;;;;;5052711;28;20020;-44
2024/03/21 09:52:18;;;;;;;31.65;19.83;;;11.20;99.90;;;;;;5043729;28;20029;-44
2024/03/21 09:54:44;;;;;;;29.30;16.77;;;11.30;99.90;;;;;;5054343;28;20561;-43
2024/03/21 09:57:12;;;;;;;27.27;16.52;;;11.30;99.90;;;;;;5058546;28;20137;-45
2024/03/21 09:59:38;;;;;;;29.23;15.32;;;11.40;99.90;;;;;;5046474;28;20036;-43
2024/03/21 10:02:12;;;;;;;30.80;17.27;;;11.50;99.90;;;;;;5051627;28;20397;-44
2024/03/21 10:04:49;;;;;;;29.00;16.90;;;11.70;99.90;;;;;;5049330;28;20127;-44
2024/03/21 10:07:22;;;;;;;26.88;15.60;;;11.90;99.90;;;;;;5059752;28;20032;-43
2024/03/21 10:09:56;;;;;;;31.35;19.15;;;12.00;99.90;;;;;;5038008;28;20094;-44
2024/03/21 10:12:22;;;;;;;28.23;17.13;;;12.10;99.90;;;;;;5036538;28;20447;-46
2024/03/21 10:14:48;;;;;;;24.33;15.60;;;12.40;99.90;;;;;;5045654;28;20040;-44
2024/03/21 10:17:13;;;;;;;28.52;16.52;;;12.60;99.90;;;;;;5043978;28;20389;-43
2024/03/21 10:19:39;;;;;;;32.28;18.30;;;12.80;99.90;;;;;;5047967;28;20038;-43
2024/03/21 10:22:05;;;;;;;26.88;17.77;;;12.80;99.90;;;;;;5043834;28;20016;-44
2024/03/21 10:24:30;;;;;;;26.00;15.27;;;12.80;99.90;;;;;;5053087;28;20024;-46
2024/03/21 10:26:56;;;;;;;25.15;14.93;;;12.90;99.90;;;;;;5047111;28;20025;-45
2024/03/21 10:29:23;;;;;;;21.52;13.23;;;13.10;99.90;;;;;;5045010;28;20060;-45
2024/03/21 10:31:50;;;;;;;21.45;12.75;;;13.30;99.90;;;;;;5043882;28;20113;-43
2024/03/21 10:34:17;;;;;;;18.85;12.02;;;13.40;99.90;;;;;;5052160;28;20309;-45
2024/03/21 10:36:43;;;;;;;20.30;12.77;;;13.50;99.90;;;;;;5039625;28;20104;-43
2024/03/21 10:39:10;;;;;;;18.25;11.55;;;13.60;99.90;;;;;;5035994;28;20446;-44
2024/03/21 10:41:36;;;;;;;26.42;14.50;;;13.80;99.90;;;;;;5039831;28;20621;-47
2024/03/21 10:44:05;;;;;;;18.10;11.55;;;13.90;99.90;;;;;;5039541;28;20052;-44
2024/03/21 10:46:38;;;;;;;14.35;10.43;;;13.90;99.90;;;;;;5039375;28;20112;-41
2024/03/21 10:49:04;;;;;;;16.42;10.02;;;14.10;99.90;;;;;;5047922;28;20451;-44
2024/03/21 10:51:29;;;;;;;15.75;9.60;;;14.20;99.90;;;;;;5045467;28;20033;-43
2024/03/21 10:54:04;;;;;;;13.77;9.48;;;14.30;99.90;;;;;;5041534;28;20399;-44
2024/03/21 10:56:36;;;;;;;15.07;9.82;;;14.20;99.90;;;;;;5041258;28;20096;-46
2024/03/21 10:59:02;;;;;;;13.00;8.55;;;14.20;99.90;;;;;;5035931;28;20045;-44
2024/03/21 11:01:35;;;;;;;11.00;7.32;;;14.00;99.90;;;;;;5040959;28;20430;-44
2024/03/21 11:04:11;;;;;;;8.63;6.25;;;14.10;99.90;;;;;;5036114;28;20384;-43
2024/03/21 11:06:41;;;;;;;12.20;6.57;;;14.00;99.90;;;;;;5042179;28;20032;-46
2024/03/21 11:09:08;;;;;;;10.85;7.03;;;14.10;99.90;;;;;;5044224;28;20045;-43
2024/03/21 11:11:34;;;;;;;10.13;6.47;;;14.10;99.90;;;;;;5039179;28;20029;-44
2024/03/21 11:14:04;;;;;;;8.30;5.38;;;14.10;99.90;;;;;;5045333;28;20094;-46
2024/03/21 11:16:30;;;;;;;9.63;6.20;;;14.10;99.90;;;;;;5043166;28;20122;-44
2024/03/21 11:18:56;;;;;;;8.80;5.93;;;14.20;99.90;;;;;;5043207;28;20037;-43
2024/03/21 11:21:23;;;;;;;10.15;6.95;;;14.20;99.90;;;;;;5041223;28;20453;-44
2024/03/21 11:23:48;;;;;;;7.93;5.53;;;14.20;99.90;;;;;;5040681;28;20414;-41
2024/03/21 11:26:16;;;;;;;6.45;4.45;;;14.30;99.90;;;;;;5043122;28;20028;-52
2024/03/21 11:28:42;;;;;;;6.90;4.00;;;14.30;99.60;;;;;;5043354;28;20070;-50
2024/03/21 11:31:21;;;;;;;6.70;4.30;;;14.40;98.90;;;;;;5043217;28;20017;-48
2024/03/21 11:33:51;;;;;;;6.32;3.85;;;14.40;98.30;;;;;;5042330;28;20082;-54
2024/03/21 11:36:18;;;;;;;4.50;3.33;;;14.50;97.80;;;;;;5043702;28;20025;-53
2024/03/21 11:38:44;;;;;;;4.97;3.25;;;14.50;97.20;;;;;;5038651;28;20044;-52
2024/03/21 11:41:19;;;;;;;5.00;3.50;;;14.60;97.20;;;;;;5034212;28;20048;-51
2024/03/21 11:43:55;;;;;;;4.68;2.95;;;14.60;96.40;;;;;;5043842;28;20064;-50
2024/03/21 11:46:22;;;;;;;7.13;3.63;;;14.90;95.70;;;;;;5055090;28;20037;-52
2024/03/21 11:49:09;;;;;;;3.60;2.20;;;15.10;95.20;;;;;;5042805;28;20029;-51
2024/03/21 11:51:34;;;;;;;4.32;2.83;;;15.20;94.10;;;;;;5058131;28;20044;-52
2024/03/21 11:54:03;;;;;;;5.20;2.13;;;15.30;92.90;;;;;;5046755;28;20516;-48
2024/03/21 11:56:29;;;;;;;3.90;2.42;;;15.30;91.80;;;;;;5047125;28;20021;-51
2024/03/21 11:58:55;;;;;;;3.75;2.97;;;15.30;91.70;;;;;;5046354;28;20028;-51
2024/03/21 12:01:20;;;;;;;3.90;2.33;;;15.40;91.70;;;;;;5041674;28;20025;-55
2024/03/21 12:03:46;;;;;;;4.47;2.90;;;15.50;91.20;;;;;;5046639;28;20021;-51
2024/03/21 12:06:11;;;;;;;4.18;2.50;;;15.60;90.40;;;;;;5048364;28;20528;-51
2024/03/21 12:08:37;;;;;;;3.47;2.40;;;15.70;90.70;;;;;;5042224;28;20048;-53
2024/03/21 12:11:09;;;;;;;4.53;2.83;;;15.70;90.30;;;;;;5046355;28;20503;-52
2024/03/21 12:13:35;;;;;;;6.45;3.33;;;15.80;89.40;;;;;;5046280;28;20563;-55
2024/03/21 12:16:00;;;;;;;5.18;2.63;;;15.90;87.60;;;;;;5046559;28;20169;-50
2024/03/21 12:18:30;;;;;;;6.53;3.40;;;16.10;87.30;;;;;;5065490;28;20483;-52
2024/03/21 12:20:56;;;;;;;7.50;3.30;;;16.40;86.60;;;;;;5042140;28;20024;-52
2024/03/21 12:23:22;;;;;;;3.95;3.03;;;16.50;84.60;;;;;;5041999;28;20021;-52
2024/03/21 12:25:47;;;;;;;5.07;2.80;;;16.70;83.70;;;;;;5041929;28;20041;-54
2024/03/21 12:28:13;;;;;;;5.50;2.53;;;16.70;83.10;;;;;;5051971;28;20025;-51
2024/03/21 12:30:38;;;;;;;4.68;2.05;;;16.70;82.90;;;;;;5049234;28;20103;-53
2024/03/21 12:33:09;;;;;;;3.78;2.25;;;16.80;82.80;;;;;;5050668;28;20116;-54
2024/03/21 12:35:34;;;;;;;2.53;1.70;;;16.90;80.80;;;;;;5046067;28;20028;-52
2024/03/21 12:38:00;;;;;;;2.55;1.90;;;16.90;80.20;;;;;;5041757;28;20041;-52
2024/03/21 12:40:25;;;;;;;2.20;1.65;;;17.00;79.40;;;;;;5036050;28;20155;-54
2024/03/21 12:42:51;;;;;;;3.13;1.83;;;17.10;79.40;;;;;;5045744;28;20029;-51
2024/03/21 12:45:17;;;;;;;3.13;2.00;;;17.20;78.80;;;;;;5041666;28;20083;-52